Αναφορές METAR Αεροδρομίων

 

LGTS - THESSALONIKI - GREECE
Ενημερώθηκε: 21/04/2019 17:20
Αραιές Νεφώσεις
Αραιές Νεφώσεις
 Ανεμος από Ν
Ανεμος: Ν 15 km/h
Θερμοκρασία: 17°C
Σημ. Δρόσου: 4°C
Υγρασία: 42%
Βαρόμετρο: 1022 hPa
Clouds: Αραιές Νεφώσεις
Visibility: 10 km
Cloud details: Αραιές Νεφώσεις 762 m
2019/04/21 14:20 LGTS 211420Z 17008KT 9999 FEW025 17/04 Q1022 NOSIG
LGLR - LARTISA - GREECE
Ενημερώθηκε: 21/04/2019 16:50
Αραιές Νεφώσεις
Αραιές Νεφώσεις
 Ανεμος από Α
Ανεμος: Α 9 km/h
Θερμοκρασία: 19°C
Σημ. Δρόσου: 6°C
Υγρασία: 43%
Βαρόμετρο: 1022 hPa
Clouds: Αραιές Νεφώσεις
Visibility: 10 km
Cloud details: Αραιές Νεφώσεις 762 m
2019/04/21 13:50 LGLR 211350Z 08005KT 9999 FEW025 19/06 Q1022 RMK FEW080 FEW180 BLU
 
LGKZ - KOZANI - GREECE
Ενημερώθηκε: 21/04/2019 16:50
Μερικώς νεφελώδης
Μερικώς νεφελώδης
 Ανεμος από ΝΑ
Ανεμος: ΝΑ 9 km/h
Θερμοκρασία: 16°C
Σημ. Δρόσου: 2°C
Υγρασία: 39%
Βαρόμετρο: 1022 hPa
Clouds: Μερικώς νεφελώδης
Visibility: 10 km
Cloud details: Μερικώς νεφελώδης 762 m
Μερικώς νεφελώδης 2134 m
2019/04/21 13:50 LGKZ 211350Z 13005KT 9999 SCT025 SCT070 16/02 Q1022
LGKV - KAVALA - GREECE
Ενημερώθηκε: 21/04/2019 17:20
Αραιές Νεφώσεις
Αραιές Νεφώσεις
 Ανεμος από ΝΔ
Ανεμος: ΝΔ 19 km/h
Θερμοκρασία: 15°C
Σημ. Δρόσου: 2°C
Υγρασία: 42%
Βαρόμετρο: 1022 hPa
Clouds: Αραιές Νεφώσεις
Visibility: 10 km
Cloud details: Αραιές Νεφώσεις 762 m
2019/04/21 14:20 LGKV 211420Z 23010KT 9999 FEW025 15/02 Q1022
 
LGIO - IOANNINA - GREECE
Ενημερώθηκε: 21/04/2019 17:20
Μερικώς νεφελώδης
Μερικώς νεφελώδης
 Ανεμος από varies
Ανεμος: varies 0 km/h
Θερμοκρασία: 19°C
Σημ. Δρόσου: 7°C
Υγρασία: 46%
Βαρόμετρο: 1021 hPa
Clouds: Μερικώς νεφελώδης
Visibility: 10 km
Cloud details: Μερικώς νεφελώδης 914 m
2019/04/21 14:20 LGIO 211420Z /////KT 9999 SCT030 19/07 Q1021
LGBL - BOLOS - GREECE
Ενημερώθηκε: 21/04/2019 17:20
Αραιές Νεφώσεις
Αραιές Νεφώσεις
 Ανεμος από ΑΝΑ
Ανεμος: ΑΝΑ 22 km/h
Θερμοκρασία: 17°C
Σημ. Δρόσου: 5°C
Υγρασία: 45%
Βαρόμετρο: 1022 hPa
Clouds: Αραιές Νεφώσεις
Visibility: 10 km
Cloud details: Αραιές Νεφώσεις 1067 m
2019/04/21 14:20 LGBL 211420Z 11012KT 9999 FEW035 17/05 Q1022
 
LGMT - MITILINI - GREECE
Ενημερώθηκε: 21/04/2019 17:20
Αραιές Νεφώσεις
Αραιές Νεφώσεις
 Ανεμος από ΒΒΔ
Ανεμος: ΒΒΔ 22 km/h
Θερμοκρασία: 16°C
Σημ. Δρόσου: -2°C
Υγρασία: 29%
Βαρόμετρο: 1022 hPa
Clouds: Αραιές Νεφώσεις
Visibility: 10 km
Cloud details: Αραιές Νεφώσεις 762 m
2019/04/21 14:20 LGMT 211420Z 33012KT 290V010 9999 FEW025 16/M02 Q1022
LGAV - ATHENS - GREECE
Ενημερώθηκε: 21/04/2019 17:20
Αραιές Νεφώσεις
Αραιές Νεφώσεις
 Ανεμος από ΒΑ
Ανεμος: ΒΑ 13 km/h
Θερμοκρασία: 15°C
Σημ. Δρόσου: 1°C
Υγρασία: 39%
Βαρόμετρο: 1023 hPa
Clouds: Αραιές Νεφώσεις
Visibility: 10 km
Cloud details: Αραιές Νεφώσεις 914 m
2019/04/21 14:20 LGAV 211420Z 04007KT 010V070 9999 FEW030 15/01 Q1023 NOSIG
 
LGRP - RODOS - GREECE
Ενημερώθηκε: 21/04/2019 17:20
Αραιές Νεφώσεις
Αραιές Νεφώσεις
 Ανεμος από Δ
Ανεμος: Δ 26 km/h
Θερμοκρασία: 17°C
Σημ. Δρόσου: 2°C
Υγρασία: 37%
Βαρόμετρο: 1017 hPa
Clouds: Αραιές Νεφώσεις
Visibility: 10 km
Cloud details: Αραιές Νεφώσεις 610 m
2019/04/21 14:20 LGRP 211420Z 26014KT 9999 FEW020 17/02 Q1017 NOSIG
LGIR - HRAKLIO/KRITI - GREECE
Ενημερώθηκε: 21/04/2019 17:20
Σχεδόν νεφελώδης
Σχεδόν νεφελώδης
 Ανεμος από ΒΒΔ
Ανεμος: ΒΒΔ 20 km/h
Θερμοκρασία: 16°C
Σημ. Δρόσου: 6°C
Υγρασία: 52%
Βαρόμετρο: 1022 hPa
Clouds: Σχεδόν νεφελώδης
Visibility: 10 km
Cloud details: Αραιές Νεφώσεις 610 m
Σχεδόν νεφελώδης 762 m
2019/04/21 14:20 LGIR 211420Z 33011KT 9999 FEW020 BKN025 16/06 Q1022 NOSIG
 
LGMK - MIKONOS - GREECE
Ενημερώθηκε: 21/04/2019 17:20
Αραιές Νεφώσεις
Αραιές Νεφώσεις
 Ανεμος από Β
Ανεμος: Β 31 km/h
Θερμοκρασία: 15°C
Σημ. Δρόσου: 5°C
Υγρασία: 51%
Βαρόμετρο: 1023 hPa
Clouds: Αραιές Νεφώσεις
Visibility: 10 km
Cloud details: Αραιές Νεφώσεις 762 m
2019/04/21 14:20 LGMK 211420Z 36017KT 9999 FEW025 15/05 Q1023
LGKR - KERKIRA - GREECE
Ενημερώθηκε: 21/04/2019 17:20
Βροχή, Mist, Σχεδόν νεφελώδης
Βροχή, Mist, Σχεδόν νεφελώδης
 Ανεμος από calm
Ανεμος: Απνοια
Θερμοκρασία: 14°C
Σημ. Δρόσου: 13°C
Υγρασία: 94%
Βαρόμετρο: 1023 hPa
Περίληψη: Βροχή, Mist
Clouds: Σχεδόν νεφελώδης
Visibility: 3 km
Cloud details: Μερικώς νεφελώδης 61 m
Μερικώς νεφελώδης 457 m
Σχεδόν νεφελώδης 762 m
2019/04/21 14:20 LGKR 211420Z 00000KT 3000 RA BR SCT002 SCT015 BKN025 14/13 Q1023 TEMPO 2000 RA BR